Time;durP1;ratioP1;P1;durP2;ratioP2;P2;SDS_P1;SDS_P2;PMS_P1;PMS_P2;Temp;Humidity;BMP_temperature;BMP_pressure;BME280_temperature;BME280_humidity;BME280_pressure;Samples;Min_cycle;Max_cycle;Signal;HPM_P1;HPM_P2
2022/12/31 00:01:12;;;;;;;137.35;41.83;;;;;;;1.08;100.00;100565.59;5052260;28;20483;-77
2022/12/31 00:03:38;;;;;;;115.65;35.75;;;;;;;0.88;100.00;100556.03;5052254;28;20120;-77
2022/12/31 00:06:18;;;;;;;89.30;34.40;;;;;;;1.31;100.00;100636.97;5052839;28;20036;-77
2022/12/31 00:08:45;;;;;;;93.20;33.00;;;;;;;1.47;100.00;100633.94;5056066;28;20132;-77
2022/12/31 00:11:13;;;;;;;162.73;38.72;;;;;;;1.27;100.00;100623.56;5056150;28;20034;-77
2022/12/31 00:13:39;;;;;;;66.38;32.72;;;;;;;1.63;100.00;100628.41;5038675;28;20033;-78
2022/12/31 00:16:19;;;;;;;155.68;36.35;;;;;;;1.01;100.00;100566.31;5038508;28;20037;-78
2022/12/31 00:18:47;;;;;;;147.18;34.92;;;;;;;1.46;100.00;100654.81;5055417;28;20051;-76
2022/12/31 00:21:14;;;;;;;134.00;35.92;;;;;;;1.53;100.00;100634.91;5055899;28;20033;-75
2022/12/31 00:23:40;;;;;;;223.32;39.33;;;;;;;1.48;100.00;100648.19;5055844;28;20059;-77
2022/12/31 00:26:10;;;;;;;189.75;41.65;;;;;;;1.71;100.00;100657.81;5056003;28;20119;-78
2022/12/31 00:28:36;;;;;;;259.92;39.20;;;;;;;1.40;100.00;100663.06;5055537;28;20131;-78
2022/12/31 00:31:05;;;;;;;120.32;36.17;;;;;;;1.36;100.00;100678.84;5038147;28;20033;-78
2022/12/31 00:33:30;;;;;;;133.57;36.03;;;;;;;1.02;100.00;100598.84;5037929;28;20037;-78
2022/12/31 00:36:04;;;;;;;268.38;41.70;;;;;;;0.77;100.00;100576.66;5038486;28;20045;-78
2022/12/31 00:38:29;;;;;;;92.72;35.88;;;;;;;1.09;100.00;100665.75;5055656;28;20047;-79
2022/12/31 00:40:54;;;;;;;89.15;35.33;;;;;;;0.88;100.00;100586.06;5038043;28;20041;-79
2022/12/31 00:43:20;;;;;;;120.47;36.45;;;;;;;1.32;100.00;100662.06;5055541;28;20032;-77
2022/12/31 00:45:45;;;;;;;106.80;36.42;;;;;;;1.47;100.00;100659.00;5055319;28;20116;-77
2022/12/31 00:48:10;;;;;;;113.28;37.40;;;;;;;0.51;100.00;100547.75;5055145;28;20033;-74
2022/12/31 00:50:36;;;;;;;144.50;37.83;;;;;;;1.42;100.00;100681.47;5055035;28;20486;-74
2022/12/31 00:53:01;;;;;;;202.20;39.10;;;;;;;0.99;100.00;100683.88;5054871;28;20040;-74
2022/12/31 00:55:27;;;;;;;202.13;40.22;;;;;;;1.11;100.00;100681.63;5054599;28;20392;-76
2022/12/31 00:57:52;;;;;;;60.45;34.53;;;;;;;0.83;100.00;100547.59;5054673;28;20043;-75
2022/12/31 01:00:17;;;;;;;161.63;37.33;;;;;;;1.50;100.00;100677.47;5054275;28;20040;-75
2022/12/31 01:02:43;;;;;;;383.35;48.90;;;;;;;1.07;100.00;100682.38;5054929;28;20036;-76
2022/12/31 01:05:08;;;;;;;340.40;46.28;;;;;;;1.11;100.00;100656.59;5036626;28;20044;-78
2022/12/31 01:07:36;;;;;;;240.23;44.08;;;;;;;0.81;100.00;100619.25;5054509;28;20045;-75
2022/12/31 01:10:02;;;;;;;146.35;41.67;;;;;;;1.54;100.00;100669.19;5054638;28;20036;-75
2022/12/31 01:12:27;;;;;;;306.45;44.20;;;;;;;0.61;100.00;100552.13;5054207;28;20113;-75
2022/12/31 01:14:52;;;;;;;183.60;42.00;;;;;;;1.48;100.00;100693.25;5053971;28;20033;-75
2022/12/31 01:17:18;;;;;;;195.40;41.40;;;;;;;1.48;100.00;100670.72;5054235;28;20041;-76
2022/12/31 01:19:43;;;;;;;194.50;42.58;;;;;;;1.15;100.00;100670.88;5054361;28;20044;-76
2022/12/31 01:22:08;;;;;;;213.77;45.97;;;;;;;1.06;100.00;100679.84;5054284;28;20033;-75
2022/12/31 01:24:34;;;;;;;276.52;46.88;;;;;;;0.88;100.00;100615.25;5054012;28;20039;-76
2022/12/31 01:26:59;;;;;;;258.52;47.20;;;;;;;1.18;100.00;100685.97;5054404;28;20135;-77
2022/12/31 01:29:25;;;;;;;320.27;50.17;;;;;;;1.55;100.00;100670.88;5054598;28;20431;-77
2022/12/31 01:31:50;;;;;;;305.77;50.08;;;;;;;0.99;100.00;100661.34;5055000;28;20115;-77
2022/12/31 01:34:16;;;;;;;577.17;62.47;;;;;;;0.91;100.00;100650.34;5036672;28;20052;-77
2022/12/31 01:36:41;;;;;;;476.00;59.38;;;;;;;0.84;100.00;100605.97;5054983;28;20123;-77
2022/12/31 01:39:08;;;;;;;386.27;50.67;;;;;;;0.60;100.00;100527.91;5036354;28;20047;-76
2022/12/31 01:41:44;;;;;;;413.95;50.65;;;;;;;1.05;100.00;100650.66;5054266;28;20143;-76
2022/12/31 01:44:10;;;;;;;577.03;60.20;;;;;;;1.14;100.00;100658.34;5053552;28;20037;-75
2022/12/31 01:46:46;;;;;;;286.30;46.05;;;;;;;0.71;100.00;100591.53;5035533;28;20063;-75
2022/12/31 01:49:15;;;;;;;311.02;51.15;;;;;;;1.01;100.00;100641.38;5053711;28;20051;-75
2022/12/31 01:51:44;;;;;;;204.43;44.58;;;;;;;1.32;100.00;100642.03;5053282;28;20095;-75
2022/12/31 01:54:14;;;;;;;257.95;46.13;;;;;;;1.21;100.00;100650.97;5053997;28;20087;-77
2022/12/31 01:56:41;;;;;;;389.67;52.10;;;;;;;1.07;100.00;100639.81;5053911;28;20068;-78
2022/12/31 01:59:09;;;;;;;678.92;65.25;;;;;;;0.69;100.00;100560.66;5036236;28;20041;-76
2022/12/31 02:01:37;;;;;;;192.90;45.95;;;;;;;1.18;100.00;100645.91;5054172;28;20049;-76
2022/12/31 02:04:08;;;;;;;269.00;47.55;;;;;;;1.55;100.00;100640.81;5035415;28;20044;-76
2022/12/31 02:06:41;;;;;;;139.70;43.17;;;;;;;1.39;100.00;100636.31;5053752;28;20049;-77
2022/12/31 02:09:10;;;;;;;270.13;48.22;;;;;;;0.84;100.00;100554.28;5053712;28;20045;-76
2022/12/31 02:11:36;;;;;;;224.25;47.92;;;;;;;1.18;100.00;100635.91;5053399;28;20041;-77
2022/12/31 02:14:12;;;;;;;255.80;50.50;;;;;;;0.95;100.00;100578.69;5053737;28;20112;-76
2022/12/31 02:16:53;;;;;;;265.52;47.85;;;;;;;1.52;100.00;100644.91;5053604;28;20037;-77
2022/12/31 02:19:37;;;;;;;181.98;44.60;;;;;;;1.39;100.00;100630.44;5053910;28;20039;-79
2022/12/31 02:22:40;;;;;;;245.27;50.33;;;;;;;0.83;100.00;100581.78;5036097;28;20045;-77
2022/12/31 02:25:40;;;;;;;285.42;53.55;;;;;;;1.19;100.00;100630.06;5034356;28;20048;-77
2022/12/31 02:28:26;;;;;;;344.50;56.05;;;;;;;1.18;100.00;100642.56;5052909;28;20049;-77
2022/12/31 02:31:24;;;;;;;331.60;52.63;;;;;;;1.22;100.00;100632.66;5053508;28;20041;-76
2022/12/31 02:33:56;;;;;;;160.35;44.95;;;;;;;1.05;100.00;100551.34;5034316;28;20102;-76
2022/12/31 02:36:30;;;;;;;108.95;43.05;;;;;;;1.16;100.00;100549.06;5053515;28;20487;-77
2022/12/31 02:38:57;;;;;;;125.30;43.78;;;;;;;0.81;100.00;100574.22;5053464;28;20549;-77
2022/12/31 02:44:42;;;;;;;282.00;47.38;;;;;;;1.43;100.00;100669.78;5053312;28;20048;-77
2022/12/31 02:47:07;;;;;;;179.68;41.10;;;;;;;1.40;100.00;100679.75;4952740;28;20039;-77
2022/12/31 02:49:45;;;;;;;159.85;39.42;;;;;;;1.07;100.00;100677.38;5014600;28;20051;-77
2022/12/31 02:52:24;;;;;;;186.30;45.35;;;;;;;0.21;100.00;100622.91;5052548;28;20480;-78
2022/12/31 02:54:57;;;;;;;102.97;39.28;;;;;;;1.13;100.00;100680.00;5052819;28;20058;-77
2022/12/31 02:57:37;;;;;;;207.30;49.45;;;;;;;0.35;100.00;100601.59;5052572;28;20115;-77
2022/12/31 03:02:50;;;;;;;315.67;53.05;;;;;;;1.23;100.00;100668.56;5052431;28;20043;-77
2022/12/31 03:05:19;;;;;;;147.32;44.35;;;;;;;0.81;100.00;100615.94;5052780;28;20087;-77
2022/12/31 03:07:45;;;;;;;219.95;47.78;;;;;;;1.54;100.00;100691.72;5052579;28;20110;-76
2022/12/31 03:10:11;;;;;;;280.75;53.60;;;;;;;1.12;100.00;100685.00;5052511;28;20036;-77
2022/12/31 03:12:45;;;;;;;197.45;46.85;;;;;;;1.00;100.00;100595.47;5034725;28;20045;-77
2022/12/31 03:15:28;;;;;;;188.70;40.03;;;;;;;1.32;100.00;100674.59;5034572;28;20078;-78
2022/12/31 03:18:13;;;;;;;209.40;39.72;;;;;;;1.11;100.00;100670.81;5052502;28;20040;-80
2022/12/31 03:23:28;;;;;;;98.45;34.15;;;;;;;0.88;100.00;100582.72;5053264;28;20055;-78
2022/12/31 03:25:55;;;;;;;103.57;35.50;;;;;;;1.26;100.00;100668.59;5034808;28;20121;-77
2022/12/31 03:28:24;;;;;;;79.57;34.13;;;;;;;0.82;100.00;100595.09;5052935;28;20744;-78
2022/12/31 03:30:54;;;;;;;60.35;32.55;;;;;;;0.94;100.00;100614.53;5052729;28;20124;-78
2022/12/31 03:33:21;;;;;;;78.55;33.50;;;;;;;1.34;100.00;100697.16;5053228;28;20037;-78
2022/12/31 03:35:48;;;;;;;63.03;33.90;;;;;;;1.33;100.00;100688.78;5035263;28;20091;-78
2022/12/31 03:38:15;;;;;;;69.53;34.28;;;;;;;1.53;100.00;100704.22;5051980;28;20517;-78
2022/12/31 03:40:46;;;;;;;72.00;34.55;;;;;;;0.92;100.00;100621.16;5035033;28;20136;-78
2022/12/31 03:43:12;;;;;;;;;;;;;;;1.46;100.00;100708.28;5053095;28;20039;-78
2022/12/31 03:45:38;;;;;;;66.07;33.65;;;;;;;1.57;100.00;100699.28;5052157;28;19920;-78
2022/12/31 03:48:05;;;;;;;69.18;35.38;;;;;;;1.13;100.00;100624.94;5052732;28;20040;-75
2022/12/31 03:50:31;;;;;;;66.78;35.50;;;;;;;0.88;100.00;100625.25;5052033;28;20039;-76
2022/12/31 03:52:56;;;;;;;77.88;35.25;;;;;;;1.37;100.00;100714.72;5052110;28;20517;-77
2022/12/31 03:55:22;;;;;;;84.60;36.60;;;;;;;1.45;100.00;100709.06;5051785;28;20045;-77
2022/12/31 03:57:47;;;;;;;69.15;35.70;;;;;;;0.95;100.00;100653.75;5051903;28;20066;-77
2022/12/31 04:00:16;;;;;;;73.53;35.45;;;;;;;1.03;100.00;100645.59;5051951;28;20069;-77
2022/12/31 04:02:42;;;;;;;79.78;36.15;;;;;;;1.59;100.00;100724.38;5051848;28;20112;-78
2022/12/31 04:05:09;;;;;;;80.47;37.75;;;;;;;1.52;100.00;100720.06;5051759;28;20079;-76
2022/12/31 04:07:34;;;;;;;84.30;38.30;;;;;;;1.53;100.00;100720.09;5033816;28;20041;-76
2022/12/31 04:10:00;;;;;;;78.60;37.88;;;;;;;0.79;100.00;100605.06;5034251;28;20075;-75
2022/12/31 04:12:25;;;;;;;71.13;34.78;;;;;;;0.79;100.00;100600.06;5051572;28;20118;-75
2022/12/31 04:14:51;;;;;;;69.45;34.83;;;;;;;0.98;100.00;100651.31;5050604;28;20451;-75
2022/12/31 04:17:16;;;;;;;64.65;32.35;;;;;;;1.78;100.00;100734.78;5050954;28;20052;-75
2022/12/31 04:19:41;;;;;;;67.18;33.17;;;;;;;1.68;100.00;100739.59;5050801;28;20041;-75
2022/12/31 04:22:07;;;;;;;59.03;31.35;;;;;;;1.48;100.00;100648.19;5051271;28;20049;-75
2022/12/31 04:24:33;;;;;;;54.10;30.10;;;;;;;1.36;100.00;100650.44;5052000;28;20128;-75
2022/12/31 04:26:58;;;;;;;46.40;25.63;;;;;;;1.19;100.00;100747.72;5051583;28;20037;-75
2022/12/31 04:29:24;;;;;;;48.75;25.70;;;;;;;0.83;100.00;100607.63;5051391;28;20037;-75
2022/12/31 04:31:49;;;;;;;51.30;28.08;;;;;;;1.22;100.00;100686.88;5051100;28;20481;-75
2022/12/31 04:34:15;;;;;;;52.22;28.35;;;;;;;1.27;100.00;100696.16;5050988;28;20404;-75
2022/12/31 04:36:41;;;;;;;53.83;26.65;;;;;;;1.51;100.00;100691.66;5050633;28;20037;-76
2022/12/31 04:39:06;;;;;;;50.35;27.02;;;;;;;1.54;100.00;100746.00;5034207;28;20129;-74
2022/12/31 04:41:32;;;;;;;52.00;28.98;;;;;;;1.41;100.00;100726.50;5049773;28;20544;-76
2022/12/31 04:43:58;;;;;;;46.05;30.10;;;;;;;1.59;100.00;100751.94;5052011;28;20055;-77
2022/12/31 04:46:29;;;;;;;40.17;24.17;;;;;;;1.30;100.00;100673.72;5050931;28;20247;-76
2022/12/31 04:48:54;;;;;;;33.20;20.92;;;;;;;1.53;100.00;100742.63;5051196;28;20037;-76
2022/12/31 04:51:21;;;;;;;30.63;20.40;;;;;;;1.86;100.00;100765.03;5051095;28;20037;-74
2022/12/31 04:53:46;;;;;;;29.02;20.02;;;;;;;1.40;100.00;100698.13;5036519;28;20037;-74
2022/12/31 04:56:12;;;;;;;32.40;19.90;;;;;;;1.14;100.00;100679.22;5036681;28;20036;-75
2022/12/31 04:58:38;;;;;;;27.27;18.92;;;;;;;1.84;100.00;100763.28;5054398;28;20170;-74
2022/12/31 05:01:06;;;;;;;26.63;18.77;;;;;;;1.15;100.00;100685.88;5054523;28;20048;-74
2022/12/31 05:03:32;;;;;;;26.83;18.38;;;;;;;1.13;100.00;100680.00;5033427;28;20093;-76
2022/12/31 05:06:04;;;;;;;26.20;18.88;;;;;;;1.12;100.00;100633.28;5028309;28;20072;-76
2022/12/31 05:08:30;;;;;;;27.55;20.00;;;;;;;1.44;100.00;100722.41;5054636;28;20040;-76
2022/12/31 05:10:55;;;;;;;32.45;20.35;;;;;;;1.31;100.00;100722.97;5054288;28;20041;-76
2022/12/31 05:13:21;;;;;;;28.80;20.35;;;;;;;1.92;100.00;100760.13;5051689;28;20407;-76
2022/12/31 05:15:46;;;;;;;31.00;22.13;;;;;;;1.81;100.00;100778.25;5034172;28;20174;-77
2022/12/31 05:18:13;;;;;;;32.70;21.58;;;;;;;1.78;100.00;100789.09;5054296;28;20056;-76
2022/12/31 05:20:38;;;;;;;29.30;20.50;;;;;;;1.93;100.00;100766.81;5055118;28;20045;-77
2022/12/31 05:23:04;;;;;;;33.30;22.58;;;;;;;1.80;100.00;100796.63;5054560;28;20040;-74
2022/12/31 05:25:29;;;;;;;35.10;21.80;;;;;;;3.20;100.00;100774.00;5054260;28;20075;-74
2022/12/31 05:27:55;;;;;;;30.55;21.83;;;;;;;2.32;100.00;100764.19;5053815;28;20045;-74
2022/12/31 05:30:21;;;;;;;31.17;21.77;;;;;;;1.61;100.00;100796.25;5054193;28;20037;-75
2022/12/31 05:32:47;;;;;;;30.98;20.83;;;;;;;1.87;100.00;100784.25;5036302;28;20389;-76
2022/12/31 05:35:13;;;;;;;31.95;23.08;;;;;;;1.85;100.00;100795.03;5053762;28;20037;-75
2022/12/31 05:37:38;;;;;;;28.95;20.92;;;;;;;1.84;100.00;100821.78;5054097;28;20048;-74
2022/12/31 05:40:05;;;;;;;33.13;23.15;;;;;;;1.79;100.00;100783.25;5054006;28;20041;-75
2022/12/31 05:42:30;;;;;;;38.05;25.52;;;;;;;1.49;100.00;100733.38;5051285;28;20029;-75
2022/12/31 05:44:56;;;;;;;36.33;27.30;;;;;;;1.93;100.00;100811.94;5039526;28;20435;-75
2022/12/31 05:47:21;;;;;;;40.70;29.02;;;;;;;1.95;100.00;100817.84;5053213;28;20041;-74
2022/12/31 05:49:47;;;;;;;42.45;30.10;;;;;;;1.64;100.00;100835.56;5053806;28;20028;-75
2022/12/31 05:52:12;;;;;;;43.72;31.35;;;;;;;1.92;100.00;100822.78;5053657;28;20510;-75
2022/12/31 05:54:38;;;;;;;45.88;30.83;;;;;;;1.88;100.00;100823.56;5035806;28;20033;-75
2022/12/31 05:57:05;;;;;;;43.08;30.30;;;;;;;1.22;100.00;100770.34;5036126;28;20039;-75
2022/12/31 05:59:30;;;;;;;42.17;29.65;;;;;;;1.71;100.00;100845.75;5053267;28;20051;-74
2022/12/31 06:01:56;;;;;;;40.88;27.92;;;;;;;1.83;100.00;100855.19;5035482;28;20503;-75
2022/12/31 06:04:22;;;;;;;37.28;27.27;;;;;;;1.58;100.00;100811.22;5051969;28;20040;-75
2022/12/31 06:06:47;;;;;;;34.92;24.15;;;;;;;1.83;100.00;100852.66;5035512;28;20049;-74
2022/12/31 06:09:14;;;;;;;33.38;23.83;;;;;;;1.43;100.00;100780.81;5034943;28;20044;-76
2022/12/31 06:11:39;;;;;;;31.73;23.20;;;;;;;1.83;100.00;100844.28;5053815;28;20037;-76
2022/12/31 06:14:04;;;;;;;35.45;25.40;;;;;;;1.48;100.00;100784.28;5052892;28;20048;-76
2022/12/31 06:16:30;;;;;;;37.42;28.45;;;;;;;2.00;100.00;100841.31;5053285;28;20431;-76
2022/12/31 06:18:55;;;;;;;45.78;31.85;;;;;;;1.35;100.00;100784.81;5053196;28;20538;-76
2022/12/31 06:21:21;;;;;;;55.05;37.53;;;;;;;2.08;100.00;100857.38;5035833;28;20093;-76
2022/12/31 06:23:47;;;;;;;76.07;56.35;;;;;;;2.08;100.00;100864.06;5049002;28;20047;-76
2022/12/31 06:26:14;;;;;;;85.53;59.83;;;;;;;2.24;100.00;100871.06;5053059;28;20475;-76
2022/12/31 06:28:40;;;;;;;92.18;65.95;;;;;;;2.34;100.00;100868.75;5052869;28;20044;-73
2022/12/31 06:31:14;;;;;;;100.25;72.05;;;;;;;1.99;100.00;100833.78;5053221;28;20040;-75
2022/12/31 06:33:40;;;;;;;77.88;56.33;;;;;;;1.81;100.00;100790.78;5053295;28;20186;-74
2022/12/31 06:36:08;;;;;;;50.35;38.03;;;;;;;2.28;100.00;100876.16;5035539;28;20041;-76
2022/12/31 06:38:37;;;;;;;44.72;32.63;;;;;;;2.05;100.00;100872.34;5053486;28;20044;-75
2022/12/31 06:41:07;;;;;;;39.75;28.73;;;;;;;1.80;100.00;100882.69;5053166;28;20115;-76
2022/12/31 06:43:37;;;;;;;35.17;25.30;;;;;;;1.61;100.00;100822.94;5052742;28;20068;-76
2022/12/31 06:46:08;;;;;;;39.45;28.63;;;;;;;2.06;100.00;100895.78;5052888;28;20035;-76
2022/12/31 06:48:34;;;;;;;47.20;33.92;;;;;;;1.92;100.00;100900.50;5052940;28;20044;-76
2022/12/31 06:51:14;;;;;;;77.45;56.80;;;;;;;1.94;100.00;100837.88;5052591;28;20087;-76
2022/12/31 06:53:40;;;;;;;53.03;39.65;;;;;;;2.12;100.00;100913.47;5051176;28;20076;-76
2022/12/31 06:56:06;;;;;;;36.47;27.38;;;;;;;2.18;100.00;100896.84;5052062;28;20605;-76
2022/12/31 06:58:32;;;;;;;36.13;27.27;;;;;;;1.46;100.00;100777.53;5052169;28;20538;-76
2022/12/31 07:01:26;;;;;;;36.42;27.20;;;;;;;2.28;100.00;100908.78;5052408;28;20057;-76
2022/12/31 07:03:57;;;;;;;45.83;32.65;;;;;;;2.16;100.00;100887.63;5052056;28;20029;-76
2022/12/31 07:06:33;;;;;;;41.72;31.05;;;;;;;1.74;100.00;100838.28;5049949;28;20503;-75
2022/12/31 07:09:24;;;;;;;43.50;31.88;;;;;;;2.41;100.00;100909.88;5039100;28;20065;-76
2022/12/31 07:11:59;;;;;;;53.55;39.30;;;;;;;2.23;100.00;100910.34;5051798;28;20059;-75
2022/12/31 07:14:36;;;;;;;78.05;56.97;;;;;;;2.63;100.00;100915.31;5051834;28;20519;-76
2022/12/31 07:17:01;;;;;;;67.97;49.17;;;;;;;2.74;100.00;100902.97;5052136;28;20037;-75
2022/12/31 07:19:53;;;;;;;58.45;44.20;;;;;;;2.56;100.00;100908.50;5052308;28;20422;-74
2022/12/31 07:22:19;;;;;;;66.40;49.35;;;;;;;1.84;100.00;100783.34;4348262;28;10001245;-76
2022/12/31 07:24:45;;;;;;;72.32;53.55;;;;;;;2.94;100.00;100911.72;5030219;28;20256;-74
2022/12/31 07:27:48;;;;;;;82.00;61.67;;;;;;;2.63;100.00;100924.53;5031217;28;20032;-74
2022/12/31 07:30:18;;;;;;;76.88;57.15;;;;;;;2.83;100.00;100923.25;5047420;28;20041;-75
2022/12/31 07:33:08;;;;;;;84.30;61.35;;;;;;;3.29;100.00;100913.16;5019995;28;20132;-76
2022/12/31 07:35:52;;;;;;;88.90;65.72;;;;;;;3.65;100.00;100919.56;5038930;28;20051;-75
2022/12/31 07:38:59;;;;;;;91.28;67.05;;;;;;;3.64;100.00;100915.38;5048195;28;20175;-76
2022/12/31 07:41:54;;;;;;;87.63;63.45;;;;;;;3.92;100.00;100907.41;5039974;28;20040;-76
2022/12/31 07:44:31;;;;;;;79.53;59.42;;;;;;;3.65;100.00;100917.06;5043064;28;20542;-76
2022/12/31 07:46:59;;;;;;;77.15;57.55;;;;;;;3.49;100.00;100843.09;5048708;28;20101;-74
2022/12/31 07:49:27;;;;;;;58.42;42.45;;;;;;;3.91;100.00;100914.09;5047947;28;20582;-75
2022/12/31 07:51:53;;;;;;;61.60;42.53;;;;;;;3.57;100.00;100921.97;5031641;28;20454;-76
2022/12/31 07:54:19;;;;;;;95.18;59.78;;;;;;;3.77;100.00;100938.22;5050525;28;20060;-79
2022/12/31 07:56:45;;;;;;;117.20;80.53;;;;;;;3.50;100.00;100931.09;5049358;28;20506;-77
2022/12/31 07:59:30;;;;;;;53.60;35.85;;;;;;;3.71;100.00;100929.72;5050777;28;20148;-76
2022/12/31 08:02:05;;;;;;;50.78;34.53;;;;;;;3.50;100.00;100938.66;5051485;28;20523;-78
2022/12/31 08:04:42;;;;;;;46.83;31.95;;;;;;;3.49;100.00;100878.28;5031227;28;20042;-77
2022/12/31 08:07:37;;;;;;;42.35;28.98;;;;;;;3.96;100.00;100937.63;5038034;28;20053;-77
2022/12/31 08:10:05;;;;;;;52.22;32.90;;;;;;;3.61;100.00;100932.91;5050498;28;20114;-78
2022/12/31 08:12:34;;;;;;;55.60;35.55;;;;;;;3.40;100.00;100941.81;5032523;28;20396;-80
2022/12/31 08:15:00;;;;;;;102.57;59.90;;;;;;;3.67;100.00;100938.03;5050670;28;20041;-76
2022/12/31 08:17:27;;;;;;;57.92;35.90;;;;;;;3.00;100.00;100944.47;5050710;28;20032;-79
2022/12/31 08:19:52;;;;;;;58.40;34.28;;;;;;;3.37;100.00;100943.41;5050910;28;20045;-76
2022/12/31 08:22:53;;;;;;;61.92;36.03;;;;;;;3.05;100.00;100905.19;5033656;28;20040;-76
2022/12/31 08:25:46;;;;;;;76.60;45.78;;;;;;;3.61;100.00;100938.78;5013389;28;20038;-77
2022/12/31 08:28:17;;;;;;;64.40;34.22;;;;;;;3.63;100.00;100952.22;5057998;28;20040;-77
2022/12/31 08:31:24;;;;;;;66.75;36.80;;;;;;;3.59;100.00;100937.06;5074480;28;20131;-77
2022/12/31 08:34:11;;;;;;;81.72;45.47;;;;;;;3.58;100.00;100938.75;5052411;28;20102;-76
2022/12/31 08:36:55;;;;;;;73.82;40.38;;;;;;;3.36;100.00;100942.59;5044960;28;20045;-76
2022/12/31 08:39:34;;;;;;;90.30;46.70;;;;;;;3.06;100.00;100937.03;5026808;28;20041;-77
2022/12/31 08:42:03;;;;;;;87.50;42.55;;;;;;;3.00;100.00;100883.34;5036795;28;20682;-78
2022/12/31 08:44:31;;;;;;;90.97;44.53;;;;;;;3.38;100.00;100947.66;5035190;28;20025;-77
2022/12/31 08:47:16;;;;;;;94.28;44.03;;;;;;;2.65;100.00;100823.34;5054514;28;20460;-77
2022/12/31 08:49:41;;;;;;;107.57;50.70;;;;;;;3.11;100.00;100967.28;5051025;28;20033;-77
2022/12/31 08:52:25;;;;;;;106.15;51.92;;;;;;;3.11;100.00;100891.94;5035076;28;20055;-78
2022/12/31 08:54:52;;;;;;;105.22;54.97;;;;;;;3.92;100.00;100930.06;5054746;28;20029;-77
2022/12/31 08:57:32;;;;;;;134.82;55.38;;;;;;;3.39;100.00;100927.56;5054596;28;20129;-78
2022/12/31 09:00:12;;;;;;;107.95;52.30;;;;;;;3.73;100.00;100928.06;5047689;28;20053;-76
2022/12/31 09:02:47;;;;;;;107.97;50.47;;;;;;;3.95;100.00;100930.06;5049502;28;20029;-77
2022/12/31 09:05:30;;;;;;;89.85;44.92;;;;;;;4.04;100.00;100926.00;5038306;28;20092;-75
2022/12/31 09:08:24;;;;;;;95.57;50.10;;;;;;;3.29;100.00;100795.06;5052832;28;20036;-76
2022/12/31 09:11:11;;;;;;;163.75;37.28;;;;;;;3.49;100.00;100934.44;5050788;28;20107;-74
2022/12/31 09:13:40;;;;;;;192.90;55.67;;;;;;;3.81;100.00;100944.13;5046918;28;20061;-75
2022/12/31 09:16:16;;;;;;;88.13;38.50;;;;;;;4.01;100.00;100920.09;5049968;28;20047;-74
2022/12/31 09:18:41;;;;;;;103.88;46.13;;;;;;;3.89;100.00;100925.81;5033361;28;20131;-76
2022/12/31 09:21:14;;;;;;;113.70;56.58;;;;;;;3.49;100.00;100841.44;5035201;28;20156;-72
2022/12/31 09:23:40;;;;;;;113.85;55.20;;;;;;;3.81;100.00;100863.66;5051363;28;20041;-72
2022/12/31 09:26:18;;;;;;;76.45;39.13;;;;;;;3.97;100.00;100915.84;5051933;28;20040;-75
2022/12/31 09:28:51;;;;;;;82.50;40.67;;;;;;;4.03;100.00;100919.31;5034142;28;20063;-74
2022/12/31 09:31:26;;;;;;;91.18;42.75;;;;;;;3.84;100.00;100916.53;5051568;28;20507;-77
2022/12/31 09:34:05;;;;;;;126.55;44.30;;;;;;;3.49;100.00;100838.06;5051038;28;20041;-75
2022/12/31 09:36:38;;;;;;;99.15;36.72;;;;;;;5.65;100.00;100871.38;5050645;28;20032;-73
2022/12/31 09:39:35;;;;;;;80.60;37.85;;;;;;;4.48;100.00;100908.94;5042845;28;20150;-81
2022/12/31 09:42:13;;;;;;;88.18;40.97;;;;;;;4.70;100.00;100900.81;5001581;28;20091;-74
2022/12/31 09:45:06;;;;;;;112.18;49.72;;;;;;;4.68;100.00;100889.88;5050579;28;20048;-73
2022/12/31 09:47:50;;;;;;;118.00;51.17;;;;;;;4.05;100.00;100897.53;5048254;28;20045;-74
2022/12/31 09:50:51;;;;;;;118.07;51.28;;;;;;;4.47;100.00;100887.16;5044535;28;20467;-73
2022/12/31 09:53:35;;;;;;;97.43;50.43;;;;;;;5.18;100.00;100882.81;5027661;28;20040;-73
2022/12/31 09:56:40;;;;;;;127.88;60.38;;;;;;;4.78;100.00;100869.00;5050457;28;20036;-74
2022/12/31 09:59:17;;;;;;;84.85;43.28;;;;;;;4.31;100.00;100798.06;5050592;28;20044;-74
2022/12/31 10:02:20;;;;;;;150.32;80.47;;;;;;;5.08;100.00;100864.25;5041237;28;20125;-74
2022/12/31 10:04:58;;;;;;;76.75;39.50;;;;;;;4.97;100.00;100887.66;5044368;28;20491;-74
2022/12/31 10:07:31;;;;;;;80.43;43.28;;;;;;;4.94;100.00;100880.06;5033630;28;20438;-75
2022/12/31 10:10:09;;;;;;;88.85;48.70;;;;;;;5.09;100.00;100865.09;5032585;28;20128;-74
2022/12/31 10:13:02;;;;;;;81.80;42.42;;;;;;;4.46;100.00;100781.41;5034561;28;20106;-75
2022/12/31 10:15:38;;;;;;;96.28;46.47;;;;;;;4.74;100.00;100882.38;5050632;28;20151;-75
2022/12/31 10:18:12;;;;;;;95.10;48.45;;;;;;;4.99;100.00;100861.63;5051644;28;21047;-75
2022/12/31 10:21:10;;;;;;;84.20;41.38;;;;;;;4.88;100.00;100860.69;4863623;28;10000727;-75
2022/12/31 10:24:23;;;;;;;83.47;37.95;;;;;;;4.65;100.00;100859.66;5048287;28;20303;-75
2022/12/31 10:27:05;;;;;;;100.95;50.92;;;;;;;4.62;100.00;100778.19;5043534;28;20045;-76
2022/12/31 10:29:56;;;;;;;110.75;63.08;;;;;;;4.21;100.00;100717.41;5049891;28;20048;-75
2022/12/31 10:32:52;;;;;;;66.20;35.40;;;;;;;5.07;100.00;100847.41;5034057;28;20530;-76
2022/12/31 10:35:27;;;;;;;102.57;54.20;;;;;;;5.05;100.00;100828.94;5050232;28;20287;-74
2022/12/31 10:38:05;;;;;;;139.20;85.43;;;;;;;5.11;100.00;100825.63;5048838;28;20095;-73
2022/12/31 10:40:36;;;;;;;108.13;53.33;;;;;;;5.05;100.00;100823.88;5050326;28;20040;-74
2022/12/31 10:43:34;;;;;;;112.40;60.60;;;;;;;5.24;100.00;100828.25;5050532;28;20129;-74
2022/12/31 10:46:11;;;;;;;112.43;60.13;;;;;;;5.35;100.00;100815.69;5043266;28;20491;-74
2022/12/31 10:49:10;;;;;;;110.95;57.72;;;;;;;5.12;100.00;100813.03;5050865;28;20128;-75
2022/12/31 10:52:21;;;;;;;95.63;49.33;;;;;;;5.05;100.00;100818.03;5032169;28;20179;-75
2022/12/31 10:55:30;;;;;;;82.55;43.60;;;;;;;4.91;100.00;100825.44;5010969;28;20068;-74
2022/12/31 10:58:13;;;;;;;91.97;47.17;;;;;;;5.23;100.00;100840.81;4971565;28;20041;-75
2022/12/31 11:00:56;;;;;;;132.15;79.15;;;;;;;4.98;100.00;100728.94;5049413;28;20059;-75
2022/12/31 11:03:49;;;;;;;96.40;50.58;;;;;;;5.88;100.00;100805.97;5032216;28;20037;-74
2022/12/31 11:06:39;;;;;;;91.07;48.85;;;;;;;5.88;100.00;100796.69;5027747;28;20504;-74
2022/12/31 11:09:58;;;;;;;99.25;53.20;;;;;;;5.55;100.00;100790.59;5039778;28;20037;-75
2022/12/31 11:13:02;;;;;;;91.47;48.70;;;;;;;5.56;100.00;100704.06;4948657;29;20521;-75
2022/12/31 11:15:56;;;;;;;89.10;50.50;;;;;;;5.62;100.00;100795.72;5042599;28;20148;-73
2022/12/31 11:18:37;;;;;;;85.47;45.97;;;;;;;6.12;100.00;100791.72;5049498;28;20076;-75
2022/12/31 11:21:15;;;;;;;89.65;50.45;;;;;;;5.51;100.00;100723.34;5049126;28;20044;-75
2022/12/31 11:24:11;;;;;;;126.90;83.20;;;;;;;6.43;100.00;100794.34;5049038;28;20040;-75
2022/12/31 11:27:02;;;;;;;84.50;49.63;;;;;;;6.48;100.00;100801.06;5052559;28;20027;-74
2022/12/31 11:29:42;;;;;;;84.45;47.05;;;;;;;6.11;100.00;100787.53;5030666;28;20486;-75
2022/12/31 11:32:16;;;;;;;75.40;43.63;;;;;;;6.54;100.00;100780.88;5029605;28;20048;-74
2022/12/31 11:34:59;;;;;;;82.22;46.20;;;;;;;6.24;100.00;100778.28;5051812;28;20041;-75
2022/12/31 11:37:35;;;;;;;127.35;76.63;;;;;;;6.37;100.00;100772.44;5051052;28;20043;-75
2022/12/31 11:40:03;;;;;;;77.30;44.38;;;;;;;8.64;100.00;100753.25;5043309;28;20040;-77
2022/12/31 11:42:40;;;;;;;70.20;44.47;;;;;;;6.08;100.00;100700.88;5033791;28;20037;-73
2022/12/31 11:45:32;;;;;;;71.75;45.20;;;;;;;6.80;100.00;100779.22;5033791;28;20037;-73